Time;durP1;ratioP1;P1;durP2;ratioP2;P2;SDS_P1;SDS_P2;PMS_P1;PMS_P2;Temp;Humidity;BMP_temperature;BMP_pressure;BME280_temperature;BME280_humidity;BME280_pressure;Samples;Min_cycle;Max_cycle;Signal;HPM_P1;HPM_P2
2023/08/27 00:01:54;0.00;0.00;0.62;0.00;0.00;0.62;2.60;2.07;;;30.10;26.20;;;;;;2263857;61;20900;-49
2023/08/27 00:04:42;0.00;0.00;0.62;0.00;0.00;0.62;2.90;2.03;;;30.10;26.20;;;;;;2263792;61;20431;-50
2023/08/27 00:07:27;0.00;0.00;0.62;0.00;0.00;0.62;2.20;2.00;;;30.10;26.20;;;;;;2264676;61;20461;-51
2023/08/27 00:10:12;0.00;0.00;0.62;0.00;0.00;0.62;3.43;2.20;;;30.10;26.20;;;;;;2263405;61;20493;-54
2023/08/27 00:12:57;0.00;0.00;0.62;0.00;0.00;0.62;3.30;2.70;;;30.10;26.20;;;;;;2264563;61;20774;-52
2023/08/27 00:15:45;0.00;0.00;0.62;0.00;0.00;0.62;2.30;1.80;;;30.10;26.30;;;;;;2264402;61;20379;-51
2023/08/27 00:18:30;0.00;0.00;0.62;0.00;0.00;0.62;2.60;1.90;;;30.10;26.30;;;;;;2264143;61;20403;-52
2023/08/27 00:21:16;0.00;0.00;0.62;0.00;0.00;0.62;2.70;2.03;;;30.10;26.30;;;;;;2263756;61;20360;-51
2023/08/27 00:24:00;0.00;0.00;0.62;0.00;0.00;0.62;3.23;2.20;;;30.10;26.20;;;;;;2263430;61;20495;-57
2023/08/27 00:26:45;0.00;0.00;0.62;0.00;0.00;0.62;2.30;2.10;;;30.10;26.30;;;;;;2264315;61;20447;-51
2023/08/27 00:29:30;0.00;0.00;0.62;0.00;0.00;0.62;2.20;1.63;;;30.10;26.30;;;;;;2264532;61;20368;-55
2023/08/27 00:32:15;0.00;0.00;0.62;0.00;0.00;0.62;3.13;1.97;;;30.10;26.30;;;;;;2263431;61;20400;-53
2023/08/27 00:35:00;0.00;0.00;0.62;0.00;0.00;0.62;3.03;1.97;;;30.10;26.30;;;;;;2263492;61;20459;-60
2023/08/27 00:37:47;0.00;0.00;0.62;0.00;0.00;0.62;1.93;1.50;;;30.10;26.30;;;;;;2261160;61;20348;-57
2023/08/27 00:40:32;0.00;0.00;0.62;0.00;0.00;0.62;2.10;1.80;;;30.10;26.30;;;;;;2264776;61;20376;-54
2023/08/27 00:43:17;0.00;0.00;0.62;0.00;0.00;0.62;3.20;2.30;;;30.10;26.30;;;;;;2264611;61;20418;-50
2023/08/27 00:46:02;0.00;0.00;0.62;0.00;0.00;0.62;2.47;1.70;;;30.10;26.30;;;;;;2264380;61;21015;-52
2023/08/27 00:48:47;0.00;0.00;0.62;0.00;0.00;0.62;2.47;1.87;;;30.10;26.30;;;;;;2264643;61;20371;-56
2023/08/27 00:51:32;0.00;0.00;0.62;0.00;0.00;0.62;2.63;2.17;;;30.10;26.30;;;;;;2265199;61;20907;-52
2023/08/27 00:54:18;0.00;0.00;0.62;0.00;0.00;0.62;3.37;1.80;;;30.10;26.30;;;;;;2263974;61;20364;-53
2023/08/27 00:57:03;0.00;0.00;0.62;0.00;0.00;0.62;3.00;2.13;;;30.10;26.30;;;;;;2264668;61;20510;-56
2023/08/27 00:59:48;0.00;0.00;0.62;0.00;0.00;0.62;2.20;1.90;;;30.10;26.30;;;;;;2264704;61;20923;-53
2023/08/27 01:02:33;0.00;0.00;0.62;0.00;0.00;0.62;2.77;2.00;;;30.10;26.30;;;;;;2264256;61;20494;-50
2023/08/27 01:05:20;0.00;0.00;0.62;0.00;0.00;0.62;2.50;1.80;;;30.10;26.30;;;;;;2264356;61;20888;-51
2023/08/27 01:08:15;0.00;0.00;0.62;0.00;0.00;0.62;2.20;2.00;;;30.10;26.30;;;;;;2264881;61;20410;-49
2023/08/27 01:11:12;0.00;0.00;0.62;0.00;0.00;0.62;2.33;1.87;;;30.10;26.30;;;;;;2264630;61;20368;-52
2023/08/27 01:14:03;0.00;0.00;0.62;0.00;0.00;0.62;2.10;1.90;;;30.10;26.40;;;;;;2264532;61;20992;-55
2023/08/27 01:16:50;0.00;0.00;0.62;0.00;0.00;0.62;2.73;1.97;;;30.10;26.40;;;;;;2264576;61;20422;-51
2023/08/27 01:19:35;0.00;0.00;0.62;0.00;0.00;0.62;3.03;2.30;;;30.10;26.40;;;;;;2264754;61;20379;-52
2023/08/27 01:22:21;0.00;0.00;0.62;0.00;0.00;0.62;2.23;1.90;;;30.10;26.40;;;;;;2264569;61;20383;-51
2023/08/27 01:25:08;0.00;0.00;0.62;0.00;0.00;0.62;2.00;1.53;;;30.10;26.40;;;;;;2264429;61;20391;-53
2023/08/27 01:28:02;0.00;0.00;0.62;0.00;0.00;0.62;2.57;1.87;;;30.10;26.40;;;;;;2262890;61;20457;-53
2023/08/27 01:30:55;0.00;0.00;0.62;0.00;0.00;0.62;2.90;2.10;;;30.10;26.40;;;;;;2260562;61;20787;-51
2023/08/27 01:33:41;0.00;0.00;0.62;0.00;0.00;0.62;2.60;1.77;;;30.10;26.40;;;;;;2258434;61;20393;-51
2023/08/27 01:36:28;0.00;0.00;0.62;0.00;0.00;0.62;2.03;1.50;;;30.10;26.40;;;;;;2257801;61;20467;-49
2023/08/27 01:39:14;0.00;0.00;0.62;0.00;0.00;0.62;1.80;1.37;;;30.10;26.40;;;;;;2260441;61;20980;-52
2023/08/27 01:41:58;0.00;0.00;0.62;0.00;0.00;0.62;1.80;1.50;;;30.10;26.40;;;;;;2260434;61;20507;-51
2023/08/27 01:44:43;0.00;0.00;0.62;0.00;0.00;0.62;1.93;1.73;;;30.10;26.40;;;;;;2260292;61;20388;-54
2023/08/27 01:47:28;0.00;0.00;0.62;0.00;0.00;0.62;1.63;1.37;;;30.10;26.40;;;;;;2260920;61;20491;-53
2023/08/27 01:50:12;0.00;0.00;0.62;0.00;0.00;0.62;2.10;1.60;;;30.10;26.40;;;;;;2260856;61;20423;-50
2023/08/27 01:52:57;0.00;0.00;0.62;0.00;0.00;0.62;2.03;1.83;;;30.10;26.40;;;;;;2260002;61;20368;-56
2023/08/27 01:55:43;0.00;0.00;0.62;0.00;0.00;0.62;2.30;1.70;;;30.10;26.40;;;;;;2260463;61;20461;-51
2023/08/27 01:58:28;0.00;0.00;0.62;0.00;0.00;0.62;2.40;1.70;;;30.00;26.40;;;;;;2260383;61;20897;-56
2023/08/27 02:01:13;0.00;0.00;0.62;0.00;0.00;0.62;1.90;1.50;;;30.00;26.40;;;;;;2260050;61;20361;-54
2023/08/27 02:03:57;0.00;0.00;0.62;0.00;0.00;0.62;2.20;1.53;;;30.10;26.50;;;;;;2259996;61;20385;-49
2023/08/27 02:06:42;0.00;0.00;0.62;0.00;0.00;0.62;1.90;1.53;;;30.00;26.40;;;;;;2260332;61;20856;-54
2023/08/27 02:09:27;0.00;0.00;0.62;0.00;0.00;0.62;1.70;1.40;;;30.10;26.50;;;;;;2260716;61;20388;-54
2023/08/27 02:12:12;0.00;0.00;0.62;0.00;0.00;0.62;2.10;1.47;;;30.00;26.40;;;;;;2261186;61;20772;-57
2023/08/27 02:14:57;0.00;0.00;0.62;0.00;0.00;0.62;2.33;1.70;;;30.10;26.50;;;;;;2259503;61;20380;-53
2023/08/27 02:17:41;0.00;0.00;0.62;0.00;0.00;0.62;2.20;1.60;;;30.00;26.40;;;;;;2260290;61;20362;-52
2023/08/27 02:20:28;0.00;0.00;0.62;0.00;0.00;0.62;1.90;1.57;;;30.00;26.40;;;;;;2260579;61;20427;-56
2023/08/27 02:23:12;0.00;0.00;0.62;0.00;0.00;0.62;2.03;1.60;;;30.00;26.40;;;;;;2259527;61;20415;-51
2023/08/27 02:25:57;0.00;0.00;0.62;0.00;0.00;0.62;1.80;1.40;;;30.00;26.40;;;;;;2260350;61;20420;-54
2023/08/27 02:28:44;0.00;0.00;0.62;0.00;0.00;0.62;2.07;1.60;;;30.00;26.40;;;;;;2260901;61;20365;-53
2023/08/27 02:31:28;0.00;0.00;0.62;0.00;0.00;0.62;2.20;1.20;;;30.00;26.40;;;;;;2259731;61;20368;-53
2023/08/27 02:34:13;0.00;0.00;0.62;0.00;0.00;0.62;2.43;1.50;;;30.00;26.40;;;;;;2259509;61;20442;-49
2023/08/27 02:36:58;0.00;0.00;0.62;0.00;0.00;0.62;1.60;1.37;;;30.00;26.40;;;;;;2259763;61;20416;-53
2023/08/27 02:39:42;0.00;0.00;0.62;0.00;0.00;0.62;1.80;1.40;;;30.00;26.40;;;;;;2259854;61;20372;-52
2023/08/27 02:42:27;0.00;0.00;0.62;0.00;0.00;0.62;1.87;1.13;;;30.00;26.40;;;;;;2260066;61;20365;-53
2023/08/27 02:45:13;0.00;0.00;0.62;0.00;0.00;0.62;2.27;1.57;;;30.00;26.40;;;;;;2259068;61;20424;-51
2023/08/27 02:47:57;0.00;0.00;0.62;0.00;0.00;0.62;1.80;1.50;;;30.00;26.50;;;;;;2260627;61;20776;-55
2023/08/27 02:50:42;0.00;0.00;0.62;0.00;0.00;0.62;2.47;1.60;;;30.00;26.40;;;;;;2260643;61;20866;-52
2023/08/27 02:53:27;0.00;0.00;0.62;0.00;0.00;0.62;2.13;1.33;;;30.00;26.50;;;;;;2259931;61;20468;-53
2023/08/27 02:56:11;0.00;0.00;0.62;0.00;0.00;0.62;1.70;1.30;;;30.00;26.40;;;;;;2259831;61;20387;-50
2023/08/27 02:58:56;0.00;0.00;0.62;0.00;0.00;0.62;1.90;1.30;;;30.00;26.50;;;;;;2260039;61;20411;-56
2023/08/27 03:01:42;0.00;0.00;0.62;0.00;0.00;0.62;2.93;1.30;;;30.00;26.50;;;;;;2259938;61;20369;-55
2023/08/27 03:04:26;0.00;0.00;0.62;0.00;0.00;0.62;1.90;1.40;;;30.00;26.50;;;;;;2260722;61;20373;-56
2023/08/27 03:07:11;0.00;0.00;0.62;0.00;0.00;0.62;2.13;1.50;;;30.00;26.50;;;;;;2260366;61;20419;-53
2023/08/27 03:09:56;0.00;0.00;0.62;0.00;0.00;0.62;2.10;1.40;;;30.00;26.50;;;;;;2260257;61;20785;-53
2023/08/27 03:12:41;0.00;0.00;0.62;0.00;0.00;0.62;1.90;1.40;;;30.00;26.50;;;;;;2260318;61;20930;-56
2023/08/27 03:15:25;0.00;0.00;0.62;0.00;0.00;0.62;2.13;1.40;;;30.00;26.50;;;;;;2259600;61;20384;-51
2023/08/27 03:18:11;0.00;0.00;0.62;0.00;0.00;0.62;1.60;1.10;;;30.00;26.50;;;;;;2260231;61;20380;-54
2023/08/27 03:20:56;0.00;0.00;0.62;0.00;0.00;0.62;2.00;1.50;;;30.00;26.50;;;;;;2260669;61;20993;-51
2023/08/27 03:23:41;0.00;0.00;0.62;0.00;0.00;0.62;1.80;1.23;;;30.00;26.50;;;;;;2259457;61;20429;-54
2023/08/27 03:26:25;0.00;0.00;0.62;0.00;0.00;0.62;2.00;1.37;;;30.00;26.50;;;;;;2260236;61;20397;-54
2023/08/27 03:29:10;0.00;0.00;0.62;0.00;0.00;0.62;1.60;1.13;;;30.00;26.50;;;;;;2259654;61;20365;-48
2023/08/27 03:31:55;0.00;0.00;0.62;0.00;0.00;0.62;2.07;1.20;;;30.00;26.50;;;;;;2260514;61;20365;-50
2023/08/27 03:34:41;0.00;0.00;0.62;0.00;0.00;0.62;1.83;1.10;;;30.00;26.50;;;;;;2259038;61;20361;-51
2023/08/27 03:37:25;0.00;0.00;0.62;0.00;0.00;0.62;1.83;1.40;;;30.00;26.50;;;;;;2259611;61;20372;-51
2023/08/27 03:40:11;0.00;0.00;0.62;0.00;0.00;0.62;2.37;1.50;;;30.00;26.50;;;;;;2260047;61;20419;-54
2023/08/27 03:42:55;0.00;0.00;0.62;0.00;0.00;0.62;1.60;1.10;;;30.00;26.60;;;;;;2259600;61;20368;-50
2023/08/27 03:45:41;0.00;0.00;0.62;0.00;0.00;0.62;1.80;1.27;;;30.00;26.60;;;;;;2259857;61;20814;-51
2023/08/27 03:48:25;0.00;0.00;0.62;0.00;0.00;0.62;1.70;1.17;;;29.90;26.50;;;;;;2260334;61;20453;-58
2023/08/27 03:51:11;0.00;0.00;0.62;0.00;0.00;0.62;2.27;1.33;;;30.00;26.60;;;;;;2260514;61;20656;-56
2023/08/27 03:53:57;0.00;0.00;0.62;0.00;0.00;0.62;1.63;1.30;;;29.90;26.50;;;;;;2259868;61;20369;-52
2023/08/27 03:56:42;0.00;0.00;0.62;0.00;0.00;0.62;2.00;1.13;;;29.90;26.50;;;;;;2260984;61;20439;-53
2023/08/27 03:59:26;0.00;0.00;0.62;0.00;0.00;0.62;2.10;1.17;;;29.90;26.50;;;;;;2260327;61;20365;-53
2023/08/27 04:02:11;0.00;0.00;0.62;0.00;0.00;0.62;2.33;1.47;;;30.00;26.60;;;;;;2260190;61;20360;-54
2023/08/27 04:04:56;0.00;0.00;0.62;0.00;0.00;0.62;1.47;0.90;;;29.90;26.50;;;;;;2259821;61;20473;-51
2023/08/27 04:07:42;0.00;0.00;0.62;0.00;0.00;0.62;3.20;1.23;;;29.90;26.50;;;;;;2259736;61;20373;-52
2023/08/27 04:10:27;0.00;0.00;0.62;0.00;0.00;0.62;1.83;1.27;;;29.90;26.50;;;;;;2260364;61;20412;-50
2023/08/27 04:13:11;0.00;0.00;0.62;0.00;0.00;0.62;1.90;1.10;;;29.90;26.60;;;;;;2259846;61;20376;-52
2023/08/27 04:15:59;0.00;0.00;0.62;0.00;0.00;0.62;2.43;1.47;;;29.90;26.50;;;;;;2260868;61;20392;-52
2023/08/27 04:18:44;0.00;0.00;0.62;0.00;0.00;0.62;1.93;1.40;;;29.90;26.50;;;;;;2260964;61;20457;-52
2023/08/27 04:21:29;0.00;0.00;0.62;0.00;0.00;0.62;1.73;1.20;;;29.90;26.60;;;;;;2260207;61;20408;-54
2023/08/27 04:24:15;0.00;0.00;0.62;0.00;0.00;0.62;2.20;1.23;;;29.90;26.60;;;;;;2260369;61;20910;-53
2023/08/27 04:26:59;0.00;0.00;0.62;0.00;0.00;0.62;1.50;1.13;;;29.90;26.60;;;;;;2261175;61;20569;-52
2023/08/27 04:29:44;0.00;0.00;0.62;0.00;0.00;0.62;1.83;1.37;;;29.90;26.60;;;;;;2260595;61;20833;-48
2023/08/27 04:32:28;0.00;0.00;0.62;0.00;0.00;0.62;1.50;1.20;;;29.90;26.60;;;;;;2260959;61;20387;-49
2023/08/27 04:35:14;0.00;0.00;0.62;0.00;0.00;0.62;2.10;1.60;;;29.90;26.60;;;;;;2260197;61;20841;-54
2023/08/27 04:37:59;0.00;0.00;0.62;0.00;0.00;0.62;1.90;1.20;;;29.90;26.60;;;;;;2260954;61;20364;-55
2023/08/27 04:40:50;0.00;0.00;0.62;0.00;0.00;0.62;1.70;1.27;;;29.90;26.70;;;;;;2260576;61;20411;-51
2023/08/27 04:43:34;0.00;0.00;0.62;0.00;0.00;0.62;1.80;1.40;;;29.90;26.70;;;;;;2260078;61;20449;-52
2023/08/27 04:46:19;0.00;0.00;0.62;0.00;0.00;0.62;2.40;1.20;;;29.90;26.60;;;;;;2260756;61;20924;-51
2023/08/27 04:49:03;0.00;0.00;0.62;0.00;0.00;0.62;2.00;1.50;;;29.90;26.70;;;;;;2260757;61;20364;-53
2023/08/27 04:51:48;0.00;0.00;0.62;0.00;0.00;0.62;1.70;1.30;;;29.90;26.70;;;;;;2260487;61;20415;-50
2023/08/27 04:54:33;0.00;0.00;0.62;0.00;0.00;0.62;1.83;1.20;;;29.90;26.70;;;;;;2260471;61;20365;-49
2023/08/27 04:57:19;0.00;0.00;0.62;0.00;0.00;0.62;1.80;1.30;;;29.90;26.70;;;;;;2260776;61;20383;-51
2023/08/27 05:00:07;0.00;0.00;0.62;0.00;0.00;0.62;1.60;1.10;;;29.90;26.70;;;;;;2260701;61;20369;-48
2023/08/27 05:02:52;0.00;0.00;0.62;0.00;0.00;0.62;2.83;1.67;;;29.90;26.70;;;;;;2260748;61;20431;-50
2023/08/27 05:05:37;0.00;0.00;0.62;0.00;0.00;0.62;1.53;1.20;;;29.90;26.70;;;;;;2260555;61;20397;-50
2023/08/27 05:08:21;0.00;0.00;0.62;0.00;0.00;0.62;2.37;1.73;;;29.90;26.70;;;;;;2261364;61;20361;-53
2023/08/27 05:11:06;0.00;0.00;0.62;0.00;0.00;0.62;1.70;1.40;;;29.90;26.70;;;;;;2260825;61;20829;-49
2023/08/27 05:13:52;0.00;0.00;0.62;0.00;0.00;0.62;2.10;1.60;;;29.90;26.70;;;;;;2260214;61;20365;-52
2023/08/27 05:16:37;0.00;0.00;0.62;0.00;0.00;0.62;1.90;1.30;;;29.90;26.70;;;;;;2260644;61;20385;-54
2023/08/27 05:19:22;0.00;0.00;0.62;0.00;0.00;0.62;1.70;1.10;;;29.90;26.70;;;;;;2260433;61;20373;-53
2023/08/27 05:22:07;0.00;0.00;0.62;0.00;0.00;0.62;1.67;1.23;;;29.90;26.70;;;;;;2260606;61;20361;-54
2023/08/27 05:24:52;0.00;0.00;0.62;0.00;0.00;0.62;1.70;1.23;;;29.90;26.80;;;;;;2260238;61;20392;-51
2023/08/27 05:27:44;0.00;0.00;0.62;0.00;0.00;0.62;1.80;1.50;;;29.90;26.80;;;;;;2260266;61;20368;-52
2023/08/27 05:30:30;0.00;0.00;0.62;0.00;0.00;0.62;2.10;1.43;;;29.90;26.80;;;;;;2260560;61;20365;-50
2023/08/27 05:33:16;0.00;0.00;0.62;0.00;0.00;0.62;2.47;1.30;;;29.90;26.80;;;;;;2260152;61;20400;-53
2023/08/27 05:36:01;0.00;0.00;0.62;0.00;0.00;0.62;2.37;1.57;;;29.90;26.80;;;;;;2259837;61;20380;-51
2023/08/27 05:38:46;0.00;0.00;0.62;0.00;0.00;0.62;3.40;1.60;;;29.90;26.80;;;;;;2261116;61;20368;-53
2023/08/27 05:41:30;0.00;0.00;0.62;0.00;0.00;0.62;1.67;1.23;;;29.80;26.70;;;;;;2261204;61;20640;-50
2023/08/27 05:44:15;0.00;0.00;0.62;0.00;0.00;0.62;2.00;1.50;;;29.80;26.70;;;;;;2260089;61;20783;-55
2023/08/27 05:47:01;0.00;0.00;0.62;0.00;0.00;0.62;1.90;1.20;;;29.80;26.70;;;;;;2260842;61;20764;-58
2023/08/27 05:49:46;0.00;0.00;0.62;0.00;0.00;0.62;1.73;1.23;;;29.90;26.80;;;;;;2260539;61;20849;-50
2023/08/27 05:52:31;0.00;0.00;0.62;0.00;0.00;0.62;2.40;1.67;;;29.90;26.90;;;;;;2260472;61;20388;-55
2023/08/27 05:55:15;0.00;0.00;0.62;0.00;0.00;0.62;2.57;1.63;;;29.80;26.80;;;;;;2260460;61;20953;-56
2023/08/27 05:58:02;0.00;0.00;0.62;0.00;0.00;0.62;1.80;1.20;;;29.90;26.80;;;;;;2259875;61;20368;-49
2023/08/27 06:00:50;0.00;0.00;0.62;0.00;0.00;0.62;2.93;1.37;;;29.90;26.80;;;;;;2260657;61;20457;-56
2023/08/27 06:03:36;0.00;0.00;0.62;0.00;0.00;0.62;1.70;1.30;;;29.90;26.90;;;;;;2260284;61;20401;-50
2023/08/27 06:06:21;0.00;0.00;0.62;0.00;0.00;0.62;1.90;1.30;;;29.90;26.90;;;;;;2260121;61;20446;-53
2023/08/27 06:09:05;0.00;0.00;0.62;0.00;0.00;0.62;2.17;1.37;;;29.80;26.80;;;;;;2260967;61;20361;-59
2023/08/27 06:11:50;0.00;0.00;0.62;0.00;0.00;0.62;1.73;1.23;;;29.80;26.80;;;;;;2260209;61;20388;-56
2023/08/27 06:14:35;0.00;0.00;0.62;0.00;0.00;0.62;2.07;1.83;;;29.80;26.80;;;;;;2260220;61;20385;-53
2023/08/27 06:17:19;0.00;0.00;0.62;0.00;0.00;0.62;2.13;1.47;;;29.80;26.80;;;;;;2261088;61;20464;-54
2023/08/27 06:20:08;0.00;0.00;0.62;0.00;0.00;0.62;2.03;1.50;;;29.80;26.80;;;;;;2259937;61;20381;-52
2023/08/27 06:22:53;0.00;0.00;0.62;0.00;0.00;0.62;2.17;1.43;;;29.80;26.80;;;;;;2260818;61;20404;-55
2023/08/27 06:25:38;0.00;0.00;0.62;0.00;0.00;0.62;2.60;1.50;;;29.80;26.80;;;;;;2260459;61;20416;-49
2023/08/27 06:28:24;0.00;0.00;0.62;0.00;0.00;0.62;2.67;1.77;;;29.80;26.90;;;;;;2260393;61;20368;-50
2023/08/27 06:31:08;0.00;0.00;0.62;0.00;0.00;0.62;2.10;1.70;;;29.80;26.90;;;;;;2260981;61;20365;-54
2023/08/27 06:33:54;0.00;0.00;0.62;0.00;0.00;0.62;1.90;1.30;;;29.80;26.90;;;;;;2259713;61;20920;-50
2023/08/27 06:36:40;0.00;0.00;0.62;0.00;0.00;0.62;2.10;1.60;;;29.80;26.90;;;;;;2257624;61;20431;-53
2023/08/27 06:39:25;0.00;0.00;0.62;0.00;0.00;0.62;2.23;1.47;;;29.80;26.90;;;;;;2260452;61;20682;-52
2023/08/27 06:42:10;0.00;0.00;0.62;0.00;0.00;0.62;1.80;1.30;;;29.80;26.90;;;;;;2259642;61;20396;-53
2023/08/27 06:44:54;0.00;0.00;0.62;0.00;0.00;0.62;2.00;1.50;;;29.80;26.90;;;;;;2260435;61;20388;-49
2023/08/27 06:47:40;0.00;0.00;0.62;0.00;0.00;0.62;2.10;1.60;;;29.80;26.90;;;;;;2260079;61;20773;-48
2023/08/27 06:50:24;0.00;0.00;0.62;0.00;0.00;0.62;1.70;1.10;;;29.80;26.90;;;;;;2259813;61;20368;-54
2023/08/27 06:53:11;0.00;0.00;0.62;0.00;0.00;0.62;2.23;1.60;;;29.80;26.90;;;;;;2260122;61;20770;-49
2023/08/27 06:55:55;0.00;0.00;0.62;0.00;0.00;0.62;1.70;1.30;;;29.80;26.90;;;;;;2259891;61;20404;-48
2023/08/27 06:58:40;0.00;0.00;0.62;0.00;0.00;0.62;2.00;1.37;;;29.80;26.90;;;;;;2260466;61;20461;-52
2023/08/27 07:01:27;0.00;0.00;0.62;0.00;0.00;0.62;2.13;1.40;;;29.80;26.90;;;;;;2260322;61;20412;-53
2023/08/27 07:04:13;0.00;0.00;0.62;0.00;0.00;0.62;2.70;1.33;;;29.80;26.90;;;;;;2259398;61;20365;-49
2023/08/27 07:06:58;0.00;0.00;0.62;0.00;0.00;0.62;2.13;1.57;;;29.80;26.90;;;;;;2260633;61;20431;-55
2023/08/27 07:09:44;0.00;0.00;0.62;0.00;0.00;0.62;2.67;1.40;;;29.80;26.90;;;;;;2260319;61;20769;-54
2023/08/27 07:12:29;0.00;0.00;0.62;0.00;0.00;0.62;1.97;1.37;;;29.80;26.90;;;;;;2259804;61;21008;-54
2023/08/27 07:15:14;0.00;0.00;0.62;0.00;0.00;0.62;2.20;1.60;;;29.80;26.90;;;;;;2259808;61;20380;-51
2023/08/27 07:17:58;0.00;0.00;0.62;0.00;0.00;0.62;2.37;1.43;;;29.80;26.90;;;;;;2259985;61;20483;-53
2023/08/27 07:20:43;0.00;0.00;0.62;0.00;0.00;0.62;1.70;1.20;;;29.80;26.90;;;;;;2260421;61;20465;-55
2023/08/27 07:23:27;0.00;0.00;0.62;0.00;0.00;0.62;1.63;1.30;;;29.80;27.00;;;;;;2260155;61;20428;-51
2023/08/27 07:26:14;0.00;0.00;0.62;0.00;0.00;0.62;2.13;1.50;;;29.80;26.90;;;;;;2260030;61;20496;-51
2023/08/27 07:28:58;0.00;0.00;0.62;0.00;0.00;0.62;2.40;1.57;;;29.80;26.90;;;;;;2260292;61;20960;-55
2023/08/27 07:31:43;0.00;0.00;0.62;0.00;0.00;0.62;2.03;1.43;;;29.80;27.00;;;;;;2260266;61;20380;-55
2023/08/27 07:34:27;0.00;0.00;0.62;0.00;0.00;0.62;2.57;1.70;;;29.80;27.00;;;;;;2259833;61;20365;-49
2023/08/27 07:37:12;0.00;0.00;0.62;0.00;0.00;0.62;1.87;1.50;;;29.80;27.00;;;;;;2260152;61;20360;-56
2023/08/27 07:39:58;0.00;0.00;0.62;0.00;0.00;0.62;3.10;1.60;;;29.80;27.00;;;;;;2259998;61;20686;-52
2023/08/27 07:42:44;0.00;0.00;0.62;0.00;0.00;0.62;2.50;1.60;;;29.70;26.90;;;;;;2259915;61;20777;-52
2023/08/27 07:45:29;0.00;0.00;0.62;0.00;0.00;0.62;2.63;1.60;;;29.80;27.00;;;;;;2260293;61;20411;-54
2023/08/27 07:48:14;0.00;0.00;0.62;0.00;0.00;0.62;2.33;1.60;;;29.80;27.00;;;;;;2259482;61;20364;-51
2023/08/27 07:50:59;0.00;0.00;0.62;0.00;0.00;0.62;1.87;1.40;;;29.80;27.00;;;;;;2260499;61;20364;-53
2023/08/27 07:53:43;0.00;0.00;0.62;0.00;0.00;0.62;3.20;1.80;;;29.80;27.00;;;;;;2259837;61;20923;-51
2023/08/27 07:56:29;0.00;0.00;0.62;0.00;0.00;0.62;2.37;1.60;;;29.80;27.00;;;;;;2259970;61;20461;-55
2023/08/27 07:59:16;0.00;0.00;0.62;0.00;0.00;0.62;1.77;1.50;;;29.80;27.00;;;;;;2260423;61;20381;-52
2023/08/27 08:02:00;0.00;0.00;0.62;0.00;0.00;0.62;1.90;1.50;;;29.80;27.00;;;;;;2260417;61;20859;-51
2023/08/27 08:04:45;0.00;0.00;0.62;0.00;0.00;0.62;3.07;2.07;;;29.70;27.00;;;;;;2259127;61;20453;-56
2023/08/27 08:07:29;0.00;0.00;0.62;0.00;0.00;0.62;2.10;1.70;;;29.80;27.00;;;;;;2260683;61;20799;-53
2023/08/27 08:10:14;0.00;0.00;0.62;0.00;0.00;0.62;3.40;1.70;;;29.80;27.00;;;;;;2260808;61;20360;-54
2023/08/27 08:12:58;0.00;0.00;0.62;0.00;0.00;0.62;2.17;1.53;;;29.80;27.10;;;;;;2261513;61;20411;-54
2023/08/27 08:15:47;0.00;0.00;0.62;0.00;0.00;0.62;2.83;1.70;;;29.80;27.10;;;;;;2261293;61;20528;-49
2023/08/27 08:18:33;0.00;0.00;0.62;0.00;0.00;0.62;2.10;1.60;;;29.80;27.10;;;;;;2260588;61;20950;-52
2023/08/27 08:21:19;0.00;0.00;0.62;0.00;0.00;0.62;2.07;1.63;;;29.80;27.10;;;;;;2261228;61;20365;-53
2023/08/27 08:24:05;0.00;0.00;0.62;0.00;0.00;0.62;2.23;1.73;;;29.80;27.10;;;;;;2260716;61;20372;-52
2023/08/27 08:26:52;0.00;0.00;0.62;0.00;0.00;0.62;1.90;1.50;;;29.80;27.10;;;;;;2261171;61;20972;-47
2023/08/27 08:29:37;0.00;0.00;0.62;0.00;0.00;0.62;1.97;1.50;;;29.80;27.10;;;;;;2261106;61;20361;-54
2023/08/27 08:32:23;0.00;0.00;0.62;0.00;0.00;0.62;2.00;1.70;;;29.80;27.10;;;;;;2260683;61;20897;-53
2023/08/27 08:35:07;0.00;0.00;0.62;0.00;0.00;0.62;2.37;1.63;;;29.80;27.20;;;;;;2260672;61;20489;-52
2023/08/27 08:37:53;0.00;0.00;0.62;0.00;0.00;0.62;2.20;1.57;;;29.80;27.20;;;;;;2261075;61;20403;-54
2023/08/27 08:40:44;0.00;0.00;0.62;0.00;0.00;0.62;2.73;1.67;;;29.80;27.20;;;;;;2260692;61;20368;-51
2023/08/27 08:43:37;0.00;0.00;0.62;0.00;0.00;0.62;2.03;1.60;;;29.80;27.20;;;;;;2260558;61;20445;-55
2023/08/27 08:46:23;0.00;0.00;0.62;0.00;0.00;0.62;2.50;1.80;;;29.80;27.20;;;;;;2261059;61;20411;-50
2023/08/27 08:49:15;0.00;0.00;0.62;0.00;0.00;0.62;1.90;1.50;;;29.80;27.20;;;;;;2260955;61;20353;-52
2023/08/27 08:52:05;0.00;0.00;0.62;0.00;0.00;0.62;2.83;1.97;;;29.90;27.20;;;;;;2261090;61;20956;-54
2023/08/27 08:54:53;0.00;0.00;0.62;0.00;0.00;0.62;2.10;1.60;;;29.90;27.20;;;;;;2260052;61;20449;-50
2023/08/27 08:57:43;0.00;0.00;0.62;0.00;0.00;0.62;2.40;1.80;;;29.90;27.30;;;;;;2261015;61;20364;-52
2023/08/27 09:00:29;0.00;0.00;0.62;0.00;0.00;0.62;2.33;1.53;;;29.80;27.20;;;;;;2260747;61;20448;-54
2023/08/27 09:03:15;0.00;0.00;0.62;0.00;0.00;0.62;4.07;1.90;;;29.80;27.20;;;;;;2260268;61;20419;-54
2023/08/27 09:06:02;0.00;0.00;0.62;0.00;0.00;0.62;1.67;1.20;;;29.80;27.20;;;;;;2260842;61;20400;-54
2023/08/27 09:08:47;0.00;0.00;0.62;0.00;0.00;0.62;2.50;1.87;;;29.80;27.20;;;;;;2260768;61;20834;-53
2023/08/27 09:11:36;0.00;0.00;0.62;0.00;0.00;0.62;3.57;1.90;;;29.90;27.30;;;;;;2261064;61;20798;-53
2023/08/27 09:14:22;0.00;0.00;0.62;0.00;0.00;0.62;1.77;1.30;;;29.90;27.30;;;;;;2260351;61;20443;-54
2023/08/27 09:17:07;0.00;0.00;0.62;0.00;0.00;0.62;2.13;1.37;;;29.90;27.30;;;;;;2260230;61;20365;-56
2023/08/27 09:19:52;0.00;0.00;0.62;0.00;0.00;0.62;2.20;1.70;;;29.90;27.30;;;;;;2260906;61;20877;-52
2023/08/27 09:22:40;0.00;0.00;0.62;0.00;0.00;0.62;1.73;1.40;;;29.90;27.30;;;;;;2260860;61;20367;-54
2023/08/27 09:25:24;0.00;0.00;0.62;0.00;0.00;0.62;1.90;1.47;;;29.90;27.40;;;;;;2260181;61;20833;-55
2023/08/27 09:28:10;0.00;0.00;0.62;0.00;0.00;0.62;1.93;1.33;;;29.90;27.40;;;;;;2260738;61;20380;-53
2023/08/27 09:30:55;0.00;0.00;0.62;0.00;0.00;0.62;2.67;1.40;;;29.90;27.30;;;;;;2260819;61;20365;-54
2023/08/27 09:33:42;0.00;0.00;0.62;0.00;0.00;0.62;2.40;1.50;;;29.90;27.40;;;;;;2260404;61;20369;-56
2023/08/27 09:36:26;0.00;0.00;0.62;0.00;0.00;0.62;2.20;1.50;;;29.90;27.40;;;;;;2260426;61;20404;-52
2023/08/27 09:39:12;0.00;0.00;0.62;0.00;0.00;0.62;1.80;1.23;;;29.90;27.40;;;;;;2260195;61;20360;-51
2023/08/27 09:41:59;0.00;0.00;0.62;0.00;0.00;0.62;1.60;1.20;;;29.90;27.90;;;;;;2260894;61;20946;-53
2023/08/27 09:44:50;0.00;0.00;0.62;0.00;0.00;0.62;2.10;1.40;;;29.90;27.40;;;;;;2260150;61;20464;-53
2023/08/27 09:47:36;0.00;0.00;0.62;0.00;0.00;0.62;1.70;1.30;;;29.90;27.40;;;;;;2260032;61;20365;-51
2023/08/27 09:50:21;0.00;0.00;0.62;0.00;0.00;0.62;2.50;1.33;;;29.90;27.40;;;;;;2260652;61;20356;-55
2023/08/27 09:53:10;0.00;0.00;0.62;0.00;0.00;0.62;1.80;1.37;;;30.00;27.40;;;;;;2259439;61;20364;-56
2023/08/27 09:55:56;0.00;0.00;0.62;0.00;0.00;0.62;2.47;1.40;;;30.00;27.50;;;;;;2260083;61;20412;-54
2023/08/27 09:58:41;0.00;0.00;0.62;0.00;0.00;0.62;2.17;1.50;;;30.00;27.50;;;;;;2260435;61;20397;-54
2023/08/27 10:01:34;0.00;0.00;0.62;0.00;0.00;0.62;2.03;1.40;;;30.00;27.50;;;;;;2259108;61;20865;-50
2023/08/27 10:04:20;0.00;0.00;0.62;0.00;0.00;0.62;1.70;1.20;;;30.00;27.50;;;;;;2259619;61;20360;-48
2023/08/27 10:07:12;0.00;0.00;0.62;0.00;0.00;0.62;1.87;1.20;;;30.00;27.50;;;;;;2260105;61;20380;-52
2023/08/27 10:09:58;0.00;0.00;0.62;0.00;0.00;0.62;1.87;1.27;;;30.00;28.00;;;;;;2259542;61;20775;-51
2023/08/27 10:12:44;0.00;0.00;0.62;0.00;0.00;0.62;1.83;1.33;;;30.00;28.00;;;;;;2259695;61;20654;-54
2023/08/27 10:15:29;0.00;0.00;0.62;0.00;0.00;0.62;2.00;1.33;;;30.00;27.50;;;;;;2260105;61;20523;-52
2023/08/27 10:18:14;0.00;0.00;0.62;0.00;0.00;0.62;2.90;1.40;;;30.10;27.50;;;;;;2259984;61;20364;-51
2023/08/27 10:21:00;0.00;0.00;0.62;0.00;0.00;0.62;1.90;1.20;;;30.00;27.50;;;;;;2260263;61;20897;-55
2023/08/27 10:23:46;0.00;0.00;0.62;0.00;0.00;0.62;1.63;1.03;;;30.10;27.50;;;;;;2259203;61;20421;-55
2023/08/27 10:26:31;0.00;0.00;0.62;0.00;0.00;0.62;2.00;1.47;;;30.10;27.50;;;;;;2260077;61;20800;-54
2023/08/27 10:29:19;0.00;0.00;0.62;0.00;0.00;0.62;2.43;1.30;;;30.10;27.50;;;;;;2260459;61;20360;-51
2023/08/27 10:32:04;0.00;0.00;0.62;0.00;0.00;0.62;1.77;1.27;;;30.10;27.50;;;;;;2260313;61;20534;-56
2023/08/27 10:34:49;0.00;0.00;0.62;0.00;0.00;0.62;2.17;1.20;;;30.10;27.50;;;;;;2260332;61;20391;-56
2023/08/27 10:37:36;0.00;0.00;0.62;0.00;0.00;0.62;1.77;1.03;;;30.10;27.50;;;;;;2260386;61;20369;-55
2023/08/27 10:40:24;0.00;0.00;0.62;0.00;0.00;0.62;2.03;1.30;;;30.10;28.10;;;;;;2260473;61;20379;-58
2023/08/27 10:43:15;0.00;0.00;0.62;0.00;0.00;0.62;2.03;1.20;;;30.10;27.50;;;;;;2260270;61;20376;-49
2023/08/27 10:46:10;0.00;0.00;0.62;0.00;0.00;0.62;1.60;1.03;;;30.10;27.50;;;;;;2260142;61;20392;-52
2023/08/27 10:48:55;0.00;0.00;0.62;0.00;0.00;0.62;1.63;1.00;;;30.10;27.50;;;;;;2260875;61;20388;-54
2023/08/27 10:51:40;0.00;0.00;0.62;0.00;0.00;0.62;1.60;1.03;;;30.20;27.50;;;;;;2260525;61;20411;-55
2023/08/27 10:54:25;0.00;0.00;0.62;0.00;0.00;0.62;1.67;1.03;;;30.20;27.50;;;;;;2259863;61;20368;-56